createdAt,value
2018-09-03T00:00:37.596Z,99.99
2018-09-03T00:01:37.592Z,99.99
2018-09-03T00:02:37.578Z,99.99
2018-09-03T00:03:37.576Z,99.99
2018-09-03T00:04:37.568Z,99.99
2018-09-03T00:05:37.553Z,99.99
2018-09-03T00:06:37.550Z,99.99
2018-09-03T00:07:37.537Z,99.99
2018-09-03T00:08:37.534Z,99.99
2018-09-03T00:09:37.519Z,99.99
2018-09-03T00:10:37.509Z,99.99
2018-09-03T00:11:37.499Z,99.99
2018-09-03T00:12:37.496Z,99.99
2018-09-03T00:13:37.483Z,99.99
2018-09-03T00:14:37.474Z,99.99
2018-09-03T00:15:37.472Z,99.99
2018-09-03T00:16:37.463Z,99.99
2018-09-03T00:17:37.453Z,99.99
2018-09-03T00:18:37.445Z,99.99
2018-09-03T00:19:37.431Z,99.99
2018-09-03T00:20:37.420Z,99.99
2018-09-03T00:21:37.414Z,99.99
2018-09-03T00:22:37.404Z,99.99
2018-09-03T00:23:37.400Z,99.99
2018-09-03T00:24:37.388Z,99.99
2018-09-03T00:25:37.376Z,99.99
2018-09-03T00:26:37.369Z,99.99
2018-09-03T00:27:37.359Z,99.99
2018-09-03T00:28:37.358Z,99.99
2018-09-03T00:29:37.342Z,99.99
2018-09-03T00:30:37.338Z,99.99
2018-09-03T00:31:37.325Z,99.99
2018-09-03T00:32:37.315Z,99.99
2018-09-03T00:33:37.311Z,99.99
2018-09-03T00:34:37.297Z,99.99
2018-09-03T00:35:37.294Z,99.99
2018-09-03T00:36:37.280Z,99.99
2018-09-03T00:37:37.275Z,99.99
2018-09-03T00:38:37.260Z,99.99
2018-09-03T00:39:37.258Z,99.99
2018-09-03T00:40:37.245Z,99.99
2018-09-03T00:41:37.238Z,99.99
2018-09-03T00:42:37.226Z,99.99
2018-09-03T00:43:37.223Z,99.99
2018-09-03T00:44:37.208Z,99.99
2018-09-03T00:45:37.198Z,99.99
2018-09-03T00:46:37.194Z,99.99
2018-09-03T00:47:37.188Z,99.99
2018-09-03T00:48:37.174Z,99.99
2018-09-03T00:49:37.170Z,99.99
2018-09-03T00:50:37.159Z,99.99
2018-09-03T00:51:37.152Z,99.99
2018-09-03T00:52:37.143Z,99.99
2018-09-03T00:53:37.129Z,99.99
2018-09-03T00:54:37.124Z,99.99
2018-09-03T00:55:37.116Z,99.99
2018-09-03T00:56:37.110Z,99.99
2018-09-03T00:57:37.096Z,99.99
2018-09-03T00:58:37.092Z,99.99
2018-09-03T00:59:37.080Z,99.99
2018-09-03T01:00:37.075Z,99.99
2018-09-03T01:01:37.058Z,99.99
2018-09-03T01:02:37.056Z,99.99
2018-09-03T01:03:37.053Z,99.99
2018-09-03T01:04:37.040Z,99.99
2018-09-03T01:05:37.027Z,99.99
2018-09-03T01:06:37.017Z,99.99
2018-09-03T01:07:37.008Z,99.99
2018-09-03T01:08:37.001Z,99.99
2018-09-03T01:09:36.993Z,99.99
2018-09-03T01:10:36.985Z,99.99
2018-09-03T01:11:36.978Z,99.99
2018-09-03T01:12:36.971Z,99.99
2018-09-03T01:13:36.959Z,99.99
2018-09-03T01:14:36.953Z,99.99
2018-09-03T01:15:36.944Z,99.99
2018-09-03T01:16:36.935Z,99.99
2018-09-03T01:17:36.927Z,99.99
2018-09-03T01:18:36.916Z,99.99
2018-09-03T01:19:36.906Z,99.99
2018-09-03T01:20:36.896Z,99.99
2018-09-03T01:21:36.886Z,99.99
2018-09-03T01:22:36.882Z,99.99
2018-09-03T01:23:36.869Z,99.99
2018-09-03T01:24:36.868Z,99.99
2018-09-03T01:25:36.856Z,99.99
2018-09-03T01:26:36.844Z,99.99
2018-09-03T01:27:36.839Z,99.99
2018-09-03T01:28:36.831Z,99.99
2018-09-03T01:29:36.881Z,99.99
2018-09-03T01:30:36.814Z,99.99
2018-09-03T01:31:36.809Z,99.99
2018-09-03T01:32:36.800Z,99.99
2018-09-03T01:33:36.786Z,99.99
2018-09-03T01:34:36.773Z,99.99
2018-09-03T01:35:36.767Z,99.99
2018-09-03T01:36:36.762Z,99.99
2018-09-03T01:37:36.756Z,99.99
2018-09-03T01:38:36.739Z,99.99
2018-09-03T01:39:36.729Z,99.99
2018-09-03T01:40:36.721Z,99.99
2018-09-03T01:41:36.710Z,99.99
2018-09-03T01:42:36.706Z,99.99
2018-09-03T01:43:36.693Z,99.99
2018-09-03T01:44:36.684Z,99.99
2018-09-03T01:45:36.676Z,99.99
2018-09-03T01:46:36.676Z,99.99
2018-09-03T01:47:36.663Z,99.99
2018-09-03T01:48:36.651Z,99.99
2018-09-03T01:49:36.640Z,99.99
2018-09-03T01:50:36.637Z,99.99
2018-09-03T01:51:36.623Z,99.99
2018-09-03T01:52:36.620Z,99.99
2018-09-03T01:53:36.608Z,99.99
2018-09-03T01:54:36.598Z,99.99
2018-09-03T01:55:36.588Z,99.99
2018-09-03T01:56:36.579Z,99.99
2018-09-03T01:57:36.569Z,99.99
2018-09-03T01:58:36.561Z,99.99
2018-09-03T01:59:36.554Z,99.99
2018-09-03T02:00:36.543Z,99.99
2018-09-03T02:01:36.540Z,99.99
2018-09-03T02:02:36.528Z,99.99
2018-09-03T02:03:36.520Z,99.99
2018-09-03T02:04:36.516Z,99.99
2018-09-03T02:05:36.501Z,99.99
2018-09-03T02:06:36.489Z,99.99
2018-09-03T02:07:36.480Z,99.99
2018-09-03T02:08:36.478Z,99.99
2018-09-03T02:09:36.469Z,99.99
2018-09-03T02:10:36.458Z,99.99
2018-09-03T02:11:36.446Z,99.99
2018-09-03T02:12:36.442Z,99.99
2018-09-03T02:13:36.433Z,99.99
2018-09-03T02:14:36.424Z,99.99
2018-09-03T02:15:36.414Z,99.99
2018-09-03T02:16:36.408Z,99.99
2018-09-03T02:17:36.396Z,99.99
2018-09-03T02:18:36.391Z,99.99
2018-09-03T02:19:36.380Z,99.99
2018-09-03T02:20:36.369Z,99.99
2018-09-03T02:21:36.358Z,99.99
2018-09-03T02:22:36.353Z,99.99
2018-09-03T02:23:36.341Z,99.99
2018-09-03T02:24:36.334Z,99.99
2018-09-03T02:25:36.322Z,99.99
2018-09-03T02:26:36.320Z,99.99
2018-09-03T02:27:36.309Z,99.99
2018-09-03T02:28:36.302Z,99.99
2018-09-03T02:29:36.289Z,99.99
2018-09-03T02:30:36.278Z,99.99
2018-09-03T02:31:36.269Z,99.99
2018-09-03T02:32:36.272Z,99.99
2018-09-03T02:33:36.260Z,99.99
2018-09-03T02:34:36.245Z,99.99
2018-09-03T02:35:36.237Z,99.99
2018-09-03T02:36:36.227Z,99.99
2018-09-03T02:37:36.221Z,99.99
2018-09-03T02:38:36.208Z,99.99
2018-09-03T02:39:36.202Z,99.99
2018-09-03T02:40:36.195Z,99.99
2018-09-03T02:41:36.184Z,99.99
2018-09-03T02:42:36.172Z,99.99
2018-09-03T02:43:36.167Z,99.99
2018-09-03T02:44:36.186Z,99.99
2018-09-03T02:45:36.150Z,99.99
2018-09-03T02:46:36.141Z,99.99
2018-09-03T02:47:36.133Z,99.99
2018-09-03T02:48:36.126Z,99.99
2018-09-03T02:49:36.117Z,99.99
2018-09-03T02:50:36.107Z,99.99
2018-09-03T02:51:36.096Z,99.99
2018-09-03T02:52:36.094Z,99.99
2018-09-03T02:53:36.083Z,99.99
2018-09-03T02:54:36.074Z,99.99
2018-09-03T02:55:36.062Z,99.99
2018-09-03T02:56:36.055Z,99.99
2018-09-03T02:57:36.049Z,99.99
2018-09-03T02:58:36.037Z,99.99
2018-09-03T02:59:36.032Z,99.99
2018-09-03T03:00:36.025Z,99.99
2018-09-03T03:01:36.012Z,99.99
2018-09-03T03:02:36.003Z,99.99
2018-09-03T03:03:35.992Z,99.99
2018-09-03T03:04:35.990Z,99.99
2018-09-03T03:05:36.022Z,99.99
2018-09-03T03:06:35.969Z,99.99
2018-09-03T03:07:35.958Z,99.99
2018-09-03T03:08:35.952Z,99.99
2018-09-03T03:09:35.947Z,99.99
2018-09-03T03:10:35.931Z,99.99
2018-09-03T03:11:35.926Z,99.99
2018-09-03T03:12:35.917Z,99.99
2018-09-03T03:13:35.904Z,99.99
2018-09-03T03:14:35.902Z,99.99
2018-09-03T03:15:35.917Z,99.99
2018-09-03T03:16:35.885Z,99.99
2018-09-03T03:17:35.872Z,99.99
2018-09-03T03:18:35.861Z,99.99
2018-09-03T03:19:35.857Z,99.99
2018-09-03T03:20:35.847Z,99.99
2018-09-03T03:21:35.837Z,99.99
2018-09-03T03:22:35.831Z,99.99
2018-09-03T03:23:35.822Z,99.99
2018-09-03T03:24:35.817Z,99.99
2018-09-03T03:25:35.806Z,99.99
2018-09-03T03:26:35.791Z,99.99
2018-09-03T03:27:35.783Z,99.99
2018-09-03T03:28:35.773Z,99.99
2018-09-03T03:29:35.772Z,99.99
2018-09-03T03:30:35.756Z,99.99
2018-09-03T03:31:35.753Z,99.99
2018-09-03T03:32:35.739Z,99.99
2018-09-03T03:33:35.735Z,99.99
2018-09-03T03:34:35.721Z,99.99
2018-09-03T03:35:35.723Z,99.99
2018-09-03T03:36:35.715Z,99.99
2018-09-03T03:37:35.710Z,99.99
2018-09-03T03:38:35.685Z,99.99
2018-09-03T03:39:35.678Z,99.99
2018-09-03T03:40:35.670Z,99.99
2018-09-03T03:41:35.663Z,99.99
2018-09-03T03:42:35.650Z,99.99
2018-09-03T03:43:35.643Z,99.99
2018-09-03T03:44:35.631Z,99.99
2018-09-03T03:45:35.623Z,99.99
2018-09-03T03:46:35.616Z,99.99
2018-09-03T03:47:35.610Z,99.99
2018-09-03T03:48:35.639Z,99.99
2018-09-03T03:49:35.586Z,99.99
2018-09-03T03:50:35.579Z,99.99
2018-09-03T03:51:35.568Z,99.99
2018-09-03T03:52:35.564Z,99.99
2018-09-03T03:53:35.550Z,99.99
2018-09-03T03:54:35.543Z,99.99
2018-09-03T03:55:35.533Z,99.99
2018-09-03T03:56:35.526Z,99.99
2018-09-03T03:57:35.513Z,99.99
2018-09-03T03:58:35.505Z,99.99
2018-09-03T03:59:35.499Z,99.99
2018-09-03T04:00:35.487Z,99.99
2018-09-03T04:01:35.485Z,99.99
2018-09-03T04:02:35.472Z,99.99
2018-09-03T04:03:35.465Z,99.99
2018-09-03T04:04:35.449Z,99.99
2018-09-03T04:05:35.445Z,99.99
2018-09-03T04:06:35.441Z,99.99
2018-09-03T04:07:35.427Z,99.99
2018-09-03T04:08:35.413Z,99.99
2018-09-03T04:09:35.401Z,99.99
2018-09-03T04:10:35.398Z,99.99
2018-09-03T04:11:35.387Z,99.99
2018-09-03T04:12:35.383Z,99.99
2018-09-03T04:13:35.365Z,99.99
2018-09-03T04:14:35.358Z,99.99
2018-09-03T04:15:35.349Z,99.99
2018-09-03T04:16:35.345Z,99.99
2018-09-03T04:17:35.332Z,99.99
2018-09-03T04:18:35.319Z,99.99
2018-09-03T04:19:35.311Z,99.99
2018-09-03T04:20:35.299Z,99.99
2018-09-03T04:21:35.290Z,99.99
2018-09-03T04:22:35.291Z,99.99
2018-09-03T04:23:35.277Z,99.99
2018-09-03T04:24:35.262Z,99.99
2018-09-03T04:25:35.252Z,99.99
2018-09-03T04:26:35.243Z,99.99
2018-09-03T04:27:35.246Z,99.99
2018-09-03T04:28:35.251Z,99.99
2018-09-03T04:29:35.221Z,99.99
2018-09-03T04:30:35.206Z,99.99
2018-09-03T04:31:35.203Z,99.99
2018-09-03T04:32:35.191Z,99.99
2018-09-03T04:33:35.180Z,99.99
2018-09-03T04:34:35.171Z,99.99
2018-09-03T04:35:35.160Z,99.99
2018-09-03T04:36:35.155Z,99.99
2018-09-03T04:37:35.140Z,99.99
2018-09-03T04:38:35.148Z,99.99
2018-09-03T04:39:35.124Z,99.99
2018-09-03T04:40:35.115Z,99.99
2018-09-03T04:41:35.106Z,99.99
2018-09-03T04:42:35.101Z,99.99
2018-09-03T04:43:35.089Z,99.99
2018-09-03T04:44:35.083Z,99.99
2018-09-03T04:45:35.069Z,99.99
2018-09-03T04:46:35.058Z,99.99
2018-09-03T04:47:35.056Z,99.99
2018-09-03T04:48:35.046Z,99.99
2018-09-03T04:49:35.035Z,99.99
2018-09-03T04:50:35.027Z,99.99
2018-09-03T04:51:35.015Z,99.99
2018-09-03T04:52:35.005Z,99.99
2018-09-03T04:53:34.996Z,99.99
2018-09-03T04:54:35.058Z,99.99
2018-09-03T04:55:34.981Z,99.99
2018-09-03T04:56:34.967Z,99.99
2018-09-03T04:57:34.955Z,99.99
2018-09-03T04:58:34.945Z,99.99
2018-09-03T04:59:34.937Z,99.99
2018-09-03T05:00:34.934Z,99.99
2018-09-03T05:01:34.919Z,99.99
2018-09-03T05:02:34.909Z,99.99
2018-09-03T05:03:34.907Z,99.99
2018-09-03T05:04:34.895Z,99.99
2018-09-03T05:05:34.971Z,99.99
2018-09-03T05:06:34.881Z,99.99
2018-09-03T05:07:34.864Z,99.99
2018-09-03T05:08:34.861Z,99.99
2018-09-03T05:09:34.850Z,99.99
2018-09-03T05:10:34.841Z,99.99
2018-09-03T05:11:34.872Z,99.99
2018-09-03T05:12:34.820Z,99.99
2018-09-03T05:13:34.811Z,99.99
2018-09-03T05:14:34.799Z,99.99
2018-09-03T05:15:34.786Z,99.99
2018-09-03T05:16:34.780Z,99.99
2018-09-03T05:17:34.777Z,99.99
2018-09-03T05:18:34.764Z,99.99
2018-09-03T05:19:34.760Z,99.99
2018-09-03T05:20:34.749Z,99.99
2018-09-03T05:21:34.739Z,99.99
2018-09-03T05:22:34.728Z,99.99
2018-09-03T05:23:34.716Z,99.99
2018-09-03T05:24:34.710Z,99.99
2018-09-03T05:25:34.702Z,99.99
2018-09-03T05:26:34.693Z,99.99
2018-09-03T05:27:34.681Z,99.99
2018-09-03T05:28:34.675Z,99.99
2018-09-03T05:29:34.659Z,99.99
2018-09-03T05:30:34.650Z,99.99
2018-09-03T05:31:34.640Z,99.99
2018-09-03T05:32:34.632Z,99.99
2018-09-03T05:33:34.621Z,99.99
2018-09-03T05:34:34.613Z,99.99
2018-09-03T05:35:34.605Z,99.99
2018-09-03T05:36:34.608Z,99.99
2018-09-03T05:37:34.591Z,99.99
2018-09-03T05:38:34.581Z,99.99
2018-09-03T05:39:34.567Z,99.99
2018-09-03T05:40:34.561Z,99.99
2018-09-03T05:41:34.551Z,99.99
2018-09-03T05:42:34.543Z,99.99
2018-09-03T05:43:34.746Z,99.99
2018-09-03T05:44:34.525Z,99.99
2018-09-03T05:45:34.515Z,99.99
2018-09-03T05:46:34.508Z,99.99
2018-09-03T05:47:34.495Z,99.99
2018-09-03T05:48:34.483Z,99.99
2018-09-03T05:49:34.474Z,99.99
2018-09-03T05:50:34.535Z,99.99
2018-09-03T05:51:34.460Z,99.99
2018-09-03T05:52:34.449Z,99.99
2018-09-03T05:53:34.440Z,99.99
2018-09-03T05:54:34.433Z,99.99
2018-09-03T05:55:34.425Z,99.99
2018-09-03T05:56:34.412Z,99.99
2018-09-03T05:57:34.409Z,99.99
2018-09-03T05:58:34.393Z,99.99
2018-09-03T05:59:34.384Z,99.99
2018-09-03T06:00:34.381Z,99.99
2018-09-03T06:01:34.381Z,99.99
2018-09-03T06:02:34.360Z,99.99
2018-09-03T06:03:34.351Z,99.99
2018-09-03T06:04:34.340Z,99.99
2018-09-03T06:05:34.331Z,99.99
2018-09-03T06:06:34.328Z,99.99
2018-09-03T06:07:34.313Z,99.99
2018-09-03T06:08:34.309Z,99.99
2018-09-03T06:09:34.301Z,99.99
2018-09-03T06:10:34.331Z,99.99
2018-09-03T06:11:34.276Z,99.99
2018-09-03T06:12:34.269Z,99.99
2018-09-03T06:13:34.263Z,99.99
2018-09-03T06:14:34.254Z,99.99
2018-09-03T06:15:34.249Z,99.99
2018-09-03T06:16:34.233Z,99.99
2018-09-03T06:17:34.228Z,99.99
2018-09-03T06:18:34.213Z,99.99
2018-09-03T06:19:34.208Z,99.99
2018-09-03T06:20:34.197Z,99.99
2018-09-03T06:21:34.189Z,99.99
2018-09-03T06:22:34.187Z,99.99
2018-09-03T06:23:34.171Z,99.99
2018-09-03T06:24:34.162Z,99.99
2018-09-03T06:25:34.153Z,99.99
2018-09-03T06:26:34.162Z,99.99
2018-09-03T06:27:34.145Z,99.99
2018-09-03T06:28:34.133Z,99.99
2018-09-03T06:29:34.116Z,99.99
2018-09-03T06:30:34.109Z,99.99
2018-09-03T06:31:34.103Z,99.99
2018-09-03T06:32:34.096Z,99.99
2018-09-03T06:33:34.096Z,99.99
2018-09-03T06:34:34.087Z,99.99
2018-09-03T06:35:34.066Z,99.99
2018-09-03T06:36:34.064Z,99.99
2018-09-03T06:37:34.050Z,99.99
2018-09-03T06:38:34.040Z,99.99
2018-09-03T06:39:34.036Z,99.99
2018-09-03T06:40:34.030Z,99.99
2018-09-03T06:41:34.014Z,99.99
2018-09-03T06:42:34.007Z,99.99
2018-09-03T06:43:34.003Z,99.99
2018-09-03T06:44:33.991Z,99.99
2018-09-03T06:45:33.981Z,99.99
2018-09-03T06:46:33.971Z,99.99
2018-09-03T06:47:33.963Z,99.99
2018-09-03T06:48:33.954Z,99.99
2018-09-03T06:49:33.947Z,99.99
2018-09-03T06:50:33.941Z,99.99
2018-09-03T06:51:33.930Z,99.99
2018-09-03T06:52:33.988Z,99.99
2018-09-03T06:53:33.973Z,99.99
2018-09-03T06:54:33.907Z,99.99
2018-09-03T06:55:33.897Z,99.99
2018-09-03T06:56:33.892Z,99.99
2018-09-03T06:57:33.886Z,99.99
2018-09-03T06:58:33.879Z,99.99
2018-09-03T06:59:33.871Z,99.99
2018-09-03T07:00:33.856Z,99.99
2018-09-03T07:01:33.849Z,99.99
2018-09-03T07:02:33.841Z,99.99
2018-09-03T07:03:33.839Z,99.99
2018-09-03T07:04:33.831Z,99.99
2018-09-03T07:05:33.816Z,99.99
2018-09-03T07:06:33.808Z,99.99
2018-09-03T07:07:33.803Z,99.99
2018-09-03T07:08:33.794Z,99.99
2018-09-03T07:09:33.784Z,99.99
2018-09-03T07:10:33.781Z,99.99
2018-09-03T07:11:33.768Z,99.99
2018-09-03T07:12:33.769Z,99.99
2018-09-03T07:13:33.754Z,99.99
2018-09-03T07:14:33.748Z,99.99
2018-09-03T07:15:33.738Z,99.99
2018-09-03T07:16:33.730Z,99.99
2018-09-03T07:17:33.724Z,99.99
2018-09-03T07:18:33.770Z,99.99
2018-09-03T07:19:33.710Z,99.99
2018-09-03T07:20:33.703Z,99.99
2018-09-03T07:21:33.691Z,99.99
2018-09-03T07:22:33.684Z,99.99
2018-09-03T07:23:33.677Z,99.99
2018-09-03T07:24:33.674Z,99.99
2018-09-03T07:25:33.666Z,99.99
2018-09-03T07:26:33.659Z,99.99
2018-09-03T07:27:33.749Z,99.99
2018-09-03T07:28:33.640Z,99.99
2018-09-03T07:29:33.634Z,99.99
2018-09-03T07:30:33.636Z,99.99
2018-09-03T07:31:33.624Z,99.99
2018-09-03T07:32:33.618Z,99.99
2018-09-03T07:33:33.604Z,99.99
2018-09-03T07:34:33.596Z,99.99
2018-09-03T07:35:33.652Z,99.99
2018-09-03T07:36:33.589Z,99.99
2018-09-03T07:37:33.575Z,99.99
2018-09-03T07:38:33.590Z,99.99
2018-09-03T07:39:33.560Z,99.99
2018-09-03T07:40:33.558Z,99.99
2018-09-03T07:41:33.545Z,99.99
2018-09-03T07:42:33.540Z,99.99
2018-09-03T07:43:33.531Z,99.99
2018-09-03T07:44:33.527Z,99.99
2018-09-03T07:45:33.521Z,99.99
2018-09-03T07:46:33.513Z,99.99
2018-09-03T07:47:33.557Z,99.99
2018-09-03T07:48:33.502Z,99.99
2018-09-03T07:49:33.497Z,99.99
2018-09-03T07:50:33.485Z,99.99
2018-09-03T07:51:33.501Z,99.99
2018-09-03T07:52:33.473Z,99.99
2018-09-03T07:53:33.464Z,99.99
2018-09-03T07:54:33.460Z,99.68
2018-09-03T07:55:33.453Z,99.99
2018-09-03T07:56:33.449Z,99.99
2018-09-03T07:57:33.439Z,99.99
2018-09-03T07:58:33.435Z,99.20
2018-09-03T07:59:33.424Z,97.76
2018-09-03T08:00:33.415Z,97.57
2018-09-03T08:01:33.409Z,97.86
2018-09-03T08:02:33.404Z,98.24
2018-09-03T08:03:33.394Z,97.47
2018-09-03T08:04:33.394Z,97.33
2018-09-03T08:05:33.387Z,97.86
2018-09-03T08:06:33.375Z,96.94
2018-09-03T08:07:33.373Z,95.98
2018-09-03T08:08:33.362Z,95.98
2018-09-03T08:09:33.357Z,96.17
2018-09-03T08:10:33.358Z,94.83
2018-09-03T08:11:33.342Z,95.50
2018-09-03T08:12:33.336Z,95.31
2018-09-03T08:13:33.332Z,94.26
2018-09-03T08:14:33.322Z,95.79
2018-09-03T08:15:33.319Z,95.60
2018-09-03T08:16:33.311Z,95.31
2018-09-03T08:17:33.302Z,93.19
2018-09-03T08:18:33.305Z,94.26
2018-09-03T08:19:33.294Z,95.65
2018-09-03T08:20:33.284Z,95.55
2018-09-03T08:21:33.283Z,95.12
2018-09-03T08:22:33.275Z,93.87
2018-09-03T08:23:33.272Z,93.24
2018-09-03T08:24:33.258Z,92.47
2018-09-03T08:25:33.253Z,92.38
2018-09-03T08:26:33.245Z,92.09
2018-09-03T08:27:33.246Z,92.38
2018-09-03T08:28:33.240Z,92.86
2018-09-03T08:29:33.233Z,91.99
2018-09-03T08:30:33.225Z,92.09
2018-09-03T08:31:33.224Z,92.29
2018-09-03T08:32:33.212Z,92.47
2018-09-03T08:33:33.215Z,92.09
2018-09-03T08:34:33.197Z,92.52
2018-09-03T08:35:33.223Z,93.01
2018-09-03T08:36:33.184Z,93.49
2018-09-03T08:37:33.186Z,92.91
2018-09-03T08:38:33.172Z,94.06
2018-09-03T08:39:33.174Z,93.39
2018-09-03T08:40:33.165Z,93.39
2018-09-03T08:41:33.155Z,93.49
2018-09-03T08:42:33.152Z,94.06
2018-09-03T08:43:33.142Z,94.64
2018-09-03T08:44:33.138Z,94.73
2018-09-03T08:45:33.137Z,95.12
2018-09-03T08:46:33.122Z,95.03
2018-09-03T08:47:33.117Z,94.40
2018-09-03T08:48:33.116Z,95.26
2018-09-03T08:49:33.127Z,95.07
2018-09-03T08:50:33.100Z,94.21
2018-09-03T08:51:33.092Z,93.82
2018-09-03T08:52:33.089Z,94.01
2018-09-03T08:53:33.077Z,94.78
2018-09-03T08:54:33.079Z,94.21
2018-09-03T08:55:33.069Z,93.82
2018-09-03T08:56:33.068Z,95.31
2018-09-03T08:57:33.055Z,94.73
2018-09-03T08:58:33.051Z,95.07
2018-09-03T08:59:33.042Z,94.93
2018-09-03T09:00:33.045Z,94.11
2018-09-03T09:01:33.028Z,94.35
2018-09-03T09:02:33.025Z,93.39
2018-09-03T09:03:33.017Z,92.72
2018-09-03T09:04:33.014Z,93.29
2018-09-03T09:05:33.001Z,93.29
2018-09-03T09:06:32.996Z,94.26
2018-09-03T09:07:32.997Z,93.49
2018-09-03T09:08:32.989Z,92.62
2018-09-03T09:09:32.979Z,93.19
2018-09-03T09:10:32.971Z,92.33
2018-09-03T09:11:32.967Z,91.85
2018-09-03T09:12:32.962Z,91.56
2018-09-03T09:13:32.976Z,91.56
2018-09-03T09:14:32.962Z,92.00
2018-09-03T09:15:32.995Z,91.04
2018-09-03T09:16:32.952Z,90.56
2018-09-03T09:17:33.029Z,90.41
2018-09-03T09:18:32.920Z,91.85
2018-09-03T09:19:32.914Z,91.47
2018-09-03T09:20:32.911Z,91.08
2018-09-03T09:21:32.908Z,90.51
2018-09-03T09:22:32.894Z,90.51
2018-09-03T09:23:32.895Z,90.80
2018-09-03T09:24:32.984Z,90.89
2018-09-03T09:25:32.907Z,90.89
2018-09-03T09:26:32.889Z,91.18
2018-09-03T09:27:32.887Z,90.31
2018-09-03T09:28:32.912Z,89.93
2018-09-03T09:29:32.896Z,88.63
2018-09-03T09:30:32.909Z,87.57
2018-09-03T09:31:32.900Z,86.80
2018-09-03T09:32:32.890Z,87.29
2018-09-03T09:33:32.844Z,87.48
2018-09-03T09:34:32.873Z,87.09
2018-09-03T09:35:32.881Z,87.48
2018-09-03T09:36:32.876Z,87.81
2018-09-03T09:37:32.803Z,86.42
2018-09-03T09:38:32.800Z,86.08
2018-09-03T09:39:32.794Z,85.88
2018-09-03T09:40:32.785Z,85.98
2018-09-03T09:41:32.781Z,84.34
2018-09-03T09:42:32.776Z,82.56
2018-09-03T09:43:32.764Z,82.14
2018-09-03T09:44:32.760Z,81.70
2018-09-03T09:45:32.754Z,81.07
2018-09-03T09:46:32.750Z,80.44
2018-09-03T09:47:32.747Z,80.06
2018-09-03T09:48:32.737Z,80.92
2018-09-03T09:49:32.732Z,79.48
2018-09-03T09:50:32.724Z,79.23
2018-09-03T09:51:32.720Z,78.85
2018-09-03T09:52:32.714Z,78.85
2018-09-03T09:53:32.709Z,78.36
2018-09-03T09:54:32.701Z,78.08
2018-09-03T09:55:32.696Z,77.53
2018-09-03T09:56:32.692Z,77.34
2018-09-03T09:57:32.790Z,77.92
2018-09-03T09:58:32.685Z,78.21
2018-09-03T09:59:32.678Z,77.44
2018-09-03T10:00:32.673Z,77.53
2018-09-03T10:01:32.672Z,76.86
2018-09-03T10:02:32.662Z,77.06
2018-09-03T10:03:32.656Z,76.67
2018-09-03T10:04:32.653Z,77.44
2018-09-03T10:05:32.651Z,76.67
2018-09-03T10:06:32.640Z,76.67
2018-09-03T10:07:32.638Z,76.38
2018-09-03T10:08:32.631Z,76.18
2018-09-03T10:09:32.626Z,75.71
2018-09-03T10:10:32.626Z,76.38
2018-09-03T10:11:32.620Z,75.71
2018-09-03T10:12:32.610Z,76.09
2018-09-03T10:13:32.611Z,77.25
2018-09-03T10:14:32.605Z,78.02
2018-09-03T10:15:32.601Z,78.69
2018-09-03T10:16:32.594Z,79.36
2018-09-03T10:17:32.592Z,79.46
2018-09-03T10:18:32.581Z,78.50
2018-09-03T10:19:32.577Z,78.69
2018-09-03T10:20:32.571Z,78.21
2018-09-03T10:21:32.568Z,78.11
2018-09-03T10:22:32.567Z,77.25
2018-09-03T10:23:32.556Z,78.15
2018-09-03T10:24:32.560Z,78.54
2018-09-03T10:25:32.547Z,77.67
2018-09-03T10:26:32.542Z,77.28
2018-09-03T10:27:32.542Z,77.28
2018-09-03T10:28:32.534Z,76.51
2018-09-03T10:29:32.533Z,77.76
2018-09-03T10:30:32.533Z,77.96
2018-09-03T10:31:32.524Z,77.09
2018-09-03T10:32:32.526Z,77.19
2018-09-03T10:33:32.509Z,76.03
2018-09-03T10:34:32.507Z,75.45
2018-09-03T10:35:32.500Z,75.65
2018-09-03T10:36:32.502Z,75.97
2018-09-03T10:37:32.495Z,75.78
2018-09-03T10:38:32.489Z,75.45
2018-09-03T10:39:32.482Z,75.01
2018-09-03T10:40:32.479Z,75.01
2018-09-03T10:41:32.479Z,75.40
2018-09-03T10:42:32.476Z,74.49
2018-09-03T10:43:32.468Z,73.24
2018-09-03T10:44:32.462Z,74.68
2018-09-03T10:45:32.455Z,74.72
2018-09-03T10:46:32.456Z,74.05
2018-09-03T10:47:32.469Z,74.14
2018-09-03T10:48:32.449Z,73.37
2018-09-03T10:49:32.438Z,73.57
2018-09-03T10:50:32.442Z,73.57
2018-09-03T10:51:32.434Z,73.27
2018-09-03T10:52:32.433Z,72.60
2018-09-03T10:53:32.424Z,72.02
2018-09-03T10:54:32.421Z,72.34
2018-09-03T10:55:32.419Z,71.96
2018-09-03T10:56:32.415Z,71.58
2018-09-03T10:57:32.407Z,71.00
2018-09-03T10:58:32.400Z,70.70
2018-09-03T10:59:32.401Z,71.22
2018-09-03T11:00:32.399Z,70.36
2018-09-03T11:01:32.393Z,69.97
2018-09-03T11:02:32.384Z,69.97
2018-09-03T11:03:32.383Z,70.16
2018-09-03T11:04:32.381Z,69.87
2018-09-03T11:05:32.377Z,69.49
2018-09-03T11:06:32.373Z,69.49
2018-09-03T11:07:32.365Z,69.49
2018-09-03T11:08:32.368Z,69.00
2018-09-03T11:09:32.357Z,69.32
2018-09-03T11:10:32.377Z,69.71
2018-09-03T11:11:32.355Z,69.23
2018-09-03T11:12:32.353Z,69.71
2018-09-03T11:13:32.343Z,69.13
2018-09-03T11:14:32.339Z,68.65
2018-09-03T11:15:32.343Z,68.26
2018-09-03T11:16:32.335Z,68.75
2018-09-03T11:17:32.331Z,68.65
2018-09-03T11:18:32.331Z,67.97
2018-09-03T11:19:32.321Z,68.17
2018-09-03T11:20:32.323Z,67.49
2018-09-03T11:21:32.521Z,67.49
2018-09-03T11:22:32.404Z,67.30
2018-09-03T11:23:32.311Z,67.52
2018-09-03T11:24:32.311Z,67.82
2018-09-03T11:25:32.312Z,67.91
2018-09-03T11:26:32.305Z,67.24
2018-09-03T11:27:32.296Z,67.14
2018-09-03T11:28:32.294Z,67.62
2018-09-03T11:29:32.286Z,67.82
2018-09-03T11:30:32.283Z,68.01
2018-09-03T11:31:32.280Z,67.40
2018-09-03T11:32:32.276Z,67.24
2018-09-03T11:33:32.274Z,66.27
2018-09-03T11:34:32.271Z,67.04
2018-09-03T11:35:32.272Z,67.14
2018-09-03T11:36:32.264Z,66.17
2018-09-03T11:37:32.267Z,66.56
2018-09-03T11:38:32.257Z,65.98
2018-09-03T11:39:32.260Z,66.17
2018-09-03T11:40:32.254Z,64.53
2018-09-03T11:41:32.252Z,63.37
2018-09-03T11:42:32.564Z,63.85
2018-09-03T11:43:32.248Z,64.14
2018-09-03T11:44:32.342Z,64.34
2018-09-03T11:45:32.235Z,66.14
2018-09-03T11:46:32.236Z,65.56
2018-09-03T11:47:32.236Z,65.95
2018-09-03T11:48:32.231Z,65.47
2018-09-03T11:49:32.225Z,66.11
2018-09-03T11:50:32.221Z,67.07
2018-09-03T11:51:32.217Z,67.94
2018-09-03T11:52:32.214Z,68.62
2018-09-03T11:53:32.210Z,67.36
2018-09-03T11:54:32.225Z,66.14
2018-09-03T11:55:32.207Z,65.40
2018-09-03T11:56:32.201Z,65.59
2018-09-03T11:57:32.196Z,65.20
2018-09-03T11:58:32.200Z,65.30
2018-09-03T11:59:32.192Z,65.20
2018-09-03T12:00:32.198Z,64.63
2018-09-03T12:01:32.197Z,63.66
2018-09-03T12:02:32.186Z,63.95
2018-09-03T12:03:32.186Z,64.21
2018-09-03T12:04:32.176Z,63.92
2018-09-03T12:05:32.174Z,64.50
2018-09-03T12:06:32.215Z,62.47
2018-09-03T12:07:32.166Z,62.08
2018-09-03T12:08:32.170Z,63.34
2018-09-03T12:09:32.158Z,64.31
2018-09-03T12:10:32.163Z,64.59
2018-09-03T12:11:32.157Z,63.89
2018-09-03T12:12:32.151Z,64.11
2018-09-03T12:13:32.145Z,64.98
2018-09-03T12:14:32.147Z,65.27
2018-09-03T12:15:32.147Z,64.89
2018-09-03T12:16:32.137Z,64.69
2018-09-03T12:17:32.134Z,64.59
2018-09-03T12:18:32.137Z,64.98
2018-09-03T12:19:32.130Z,64.89
2018-09-03T12:20:32.124Z,66.05
2018-09-03T12:21:32.124Z,66.33
2018-09-03T12:22:32.121Z,66.72
2018-09-03T12:23:32.120Z,65.95
2018-09-03T12:24:32.115Z,66.05
2018-09-03T12:25:32.109Z,66.14
2018-09-03T12:26:32.109Z,65.66
2018-09-03T12:27:32.119Z,65.17
2018-09-03T12:28:32.102Z,64.31
2018-09-03T12:29:32.099Z,64.01
2018-09-03T12:30:32.129Z,64.40
2018-09-03T12:31:32.087Z,63.43
2018-09-03T12:32:32.091Z,63.47
2018-09-03T12:33:32.086Z,62.37
2018-09-03T12:34:32.078Z,62.60
2018-09-03T12:35:32.080Z,63.95
2018-09-03T12:36:32.073Z,63.47
2018-09-03T12:37:32.074Z,61.83
2018-09-03T12:38:32.066Z,61.44
2018-09-03T12:39:32.062Z,61.83
2018-09-03T12:40:32.057Z,60.38
2018-09-03T12:41:32.060Z,60.38
2018-09-03T12:42:32.056Z,59.89
2018-09-03T12:43:32.048Z,60.18
2018-09-03T12:44:32.048Z,60.28
2018-09-03T12:45:32.043Z,60.57
2018-09-03T12:46:32.118Z,61.15
2018-09-03T12:47:32.043Z,61.60
2018-09-03T12:48:32.039Z,61.80
2018-09-03T12:49:32.035Z,62.28
2018-09-03T12:50:32.026Z,63.05
2018-09-03T12:51:32.024Z,61.67
2018-09-03T12:52:32.022Z,62.86